KOWA

Owatonna Degner Regional Airport

Owatonna, Minnesota, USA
METAR KOWA 190655Z AUTO 20009KT 10SM CLR M02/M05 A2976 RMK AO2
Observed Flight Rules
Jan-19 @ 06:55 UTC (33 minutes ago) Visual Flight Rules
Wind Visibility Clouds
200° at 9 knots 10 miles
  • Clear skies
Temperatures Readings
Current -2°C / 28°F
Dewpoint -5°C / 23°F
Humidity 80%
Altimeter 29.76" Hg
Pressure 1008 hPa
Elevation 350
METAR KOWA 190655Z AUTO 20009KT 10SM CLR M02/M05 A2976 RMK AO2
Observed Flight Rules
Jan-19 @ 06:55 UTC
(33 minutes ago)
VFR
Wind Visibility
200° at 9 knots 10 miles
Clouds
  • Clear skies
Temperature Dewpoint
-2°C / 28°F -5°C / 23°F
Humidity Altimeter Pressure
80% 29.76" Hg 1008 hPa